Spiegelgracht — PCEO — position and weather

sailwx.info

Track history (hours):
 
Tides and Currents Weather Stations Pressure Air Temp Water Temp Dewpoint Dewpoint Depression Visibility Wind Speed Wind Dir Waves Ship Positions

Spiegelgracht

Last reported at 2019-Apr-18 12:00 UTC. Time now 2019-Apr-18 20:40 UTC.
Position N 45°00' W 060°36'.

Length 168 m; beam 25 m.

Type: Cargo ship. MMSI: 245789000.

Wind from 300 at 18 knots

Barometer 1027.2 mb
Air temperature 2.0 ° C
Visibility: greater than 10.8 NM
Dewpoint 0.1 ° C
Water temperature 2.9 ° C

Date/timePositionNaut miles runAvg speedWind from/ knotsBaromVisibWave heightAir tempDewpointWater temp
2019-Apr-18 12:00N 45°00' W 060°36'17814.8 300 / 181027.210.8 2.0 0.1 2.9
2019-Apr-18 00:00N 42°54' W 063°30'17314.4 330 / 161021.210.8 4.0-0.9
2019-Apr-17 12:00N 40°54' W 066°18'17914.9 330 / 211016.710.8 7.2 2.9 3.8
2019-Apr-17 00:00N 39°12' W 069°30'17214.3 290 / 161016.110.8 14.8 5.814.1
2019-Apr-16 12:00N 37°48' W 072°42'32513.5 310 / 301019.610.8 12.2 4.120.6
2019-Apr-15 12:00N 33°12' W 076°12'21718.1 250 / 301007.3 5.4 22.819.425.7
2019-Apr-15 00:00N 30°48' W 079°24'   180 / 271010.8 5.4 26.023.226.0
2019-Apr-11 16:58N 31°36' W 079°51'815.7
2019-Apr-11 16:27N 31°42' W 079°46'1116.0
2019-Apr-11 15:44N 31°51' W 079°38'416.0
2019-Apr-11 15:28N 31°55' W 079°35'715.8
2019-Apr-11 15:00N 32°01' W 079°29'915.6
2019-Apr-11 14:28N 32°07' W 079°23'23015.9
2019-Apr-11 00:00N 34°30' W 075°48'20915.3 040 / 161012.010.8 20.013.926.6
2019-Apr-10 10:19N 37°53' W 074°46'516.7
2019-Apr-10 10:01N 37°58' W 074°46'816.8
2019-Apr-10 09:30N 38°06' W 074°45'816.8
2019-Apr-10 09:01N 38°15' W 074°44'816.7
2019-Apr-10 08:30N 38°23' W 074°44'815.7
2019-Apr-10 08:00N 38°30' W 074°47'612.3
2019-Apr-10 07:30N 38°35' W 074°52'5 9.1
2019-Apr-10 07:00N 38°39' W 074°55'5 9.3
2019-Apr-10 06:30N 38°43' W 074°59'5 9.4
2019-Apr-10 05:59N 38°47' W 075°02'4 9.3
2019-Apr-10 05:31N 38°51' W 075°04'510.1
2019-Apr-10 05:01N 38°56' W 075°06'713.3
2019-Apr-10 04:31N 39°02' W 075°09'612.7
2019-Apr-10 04:01N 39°07' W 075°13'612.0
2019-Apr-10 03:30N 39°13' W 075°17'611.8
2019-Apr-10 03:00N 39°17' W 075°22'612.0
2019-Apr-10 02:30N 39°22' W 075°27'612.9
2019-Apr-10 02:00N 39°27' W 075°33'612.9
2019-Apr-10 01:30N 39°33' W 075°33'611.8
2019-Apr-10 01:01N 39°39' W 075°33'714.1
2019-Apr-10 00:30N 39°45' W 075°29'611.3
2019-Apr-10 00:00N 39°49' W 075°24'611.3
2019-Apr-09 23:30N 39°51' W 075°17'5 9.4
2019-Apr-09 23:00N 39°53' W 075°11'3 6.6
2019-Apr-09 22:30N 39°55' W 075°08'0 0.6
2019-Apr-09 22:00N 39°55' W 075°08'0 0.0
2019-Apr-09 21:30N 39°55' W 075°08'0 0.0
2019-Apr-09 21:00N 39°55' W 075°08'0 0.0
2019-Apr-09 20:30N 39°55' W 075°08'0 0.0
2019-Apr-09 20:00N 39°55' W 075°08'0 0.0
2019-Apr-09 19:30N 39°55' W 075°08'0 0.0
2019-Apr-09 19:00N 39°55' W 075°08'0 0.0
2019-Apr-09 18:30N 39°55' W 075°08'0 0.0
2019-Apr-09 18:00N 39°55' W 075°08'0 0.0
2019-Apr-09 17:30N 39°55' W 075°08'0 0.0
2019-Apr-09 17:00N 39°55' W 075°08'0 0.0
2019-Apr-09 16:30N 39°55' W 075°08'0 0.0
2019-Apr-09 16:00N 39°55' W 075°08'0 0.0
2019-Apr-09 15:30N 39°55' W 075°08'0 0.0
2019-Apr-09 15:00N 39°55' W 075°08'0 0.0
2019-Apr-09 14:30N 39°55' W 075°08'0 0.0
2019-Apr-09 14:00N 39°55' W 075°08'0 0.0
2019-Apr-09 13:30N 39°55' W 075°08'0 0.0
2019-Apr-09 13:00N 39°55' W 075°08'0 0.0
2019-Apr-09 12:30N 39°55' W 075°08'0 0.0
2019-Apr-09 12:00N 39°55' W 075°08'0 0.0
2019-Apr-09 11:30N 39°55' W 075°08'0 0.0
2019-Apr-09 11:00N 39°55' W 075°08'0 0.0
2019-Apr-09 10:27N 39°55' W 075°08'0 0.0
2019-Apr-09 10:00N 39°55' W 075°08'0 0.0
2019-Apr-09 09:30N 39°55' W 075°08'0 0.0
2019-Apr-09 08:59N 39°55' W 075°08'0 0.0
2019-Apr-09 08:29N 39°55' W 075°08'0 0.0
2019-Apr-09 07:59N 39°55' W 075°08'0 0.0
2019-Apr-09 07:29N 39°55' W 075°08'0 0.0
2019-Apr-09 06:59N 39°55' W 075°08'0 0.0
2019-Apr-09 06:29N 39°55' W 075°08'0 0.0
2019-Apr-09 05:59N 39°55' W 075°08'0 0.0
2019-Apr-09 05:29N 39°55' W 075°08'0 0.0
2019-Apr-09 04:59N 39°55' W 075°08'0 0.0
2019-Apr-09 04:29N 39°55' W 075°08'0 0.0
2019-Apr-09 03:56N 39°55' W 075°08'0 0.0
2019-Apr-09 03:29N 39°55' W 075°08'0 0.0
2019-Apr-09 02:59N 39°55' W 075°08'0 0.0
2019-Apr-09 02:29N 39°55' W 075°08'0 0.0
2019-Apr-09 01:59N 39°55' W 075°08'0 0.0
2019-Apr-09 01:29N 39°55' W 075°08'0 0.0
2019-Apr-09 00:59N 39°55' W 075°08'0 0.0
2019-Apr-09 00:29N 39°55' W 075°08'0 0.0
2019-Apr-08 23:59N 39°55' W 075°08'0 0.0
2019-Apr-08 23:29N 39°55' W 075°08'0 0.0
2019-Apr-08 22:59N 39°55' W 075°08'0 0.0
2019-Apr-08 22:29N 39°55' W 075°08'0 0.0
2019-Apr-08 21:59N 39°55' W 075°08'0 0.0
2019-Apr-08 21:29N 39°55' W 075°08'0 0.0
2019-Apr-08 20:59N 39°55' W 075°08'0 0.0
2019-Apr-08 20:29N 39°55' W 075°08'0 0.0
2019-Apr-08 19:59N 39°55' W 075°08'0 0.0
2019-Apr-08 19:29N 39°55' W 075°08'0 0.0
2019-Apr-08 18:59N 39°55' W 075°08'0 0.0
2019-Apr-08 18:29N 39°55' W 075°08'0 0.0
2019-Apr-08 17:59N 39°55' W 075°08'0 0.0
2019-Apr-08 17:29N 39°55' W 075°08'0 0.0
2019-Apr-08 16:59N 39°55' W 075°08'0 0.0
2019-Apr-08 16:29N 39°55' W 075°08'0 0.0
2019-Apr-08 15:59N 39°55' W 075°08'0 0.0
2019-Apr-08 15:29N 39°55' W 075°08'0 0.0
2019-Apr-08 14:59N 39°55' W 075°08'0 0.0
2019-Apr-08 14:29N 39°55' W 075°08'0 0.0
2019-Apr-08 13:59N 39°55' W 075°08'0 0.0
2019-Apr-08 13:29N 39°55' W 075°08'0 0.0
2019-Apr-08 12:59N 39°55' W 075°08'0 0.0
2019-Apr-08 12:29N 39°55' W 075°08'  
Track history (hours):
 
Tides and Currents Weather Stations Pressure Air Temp Water Temp Dewpoint Dewpoint Depression Visibility Wind Speed Wind Dir Waves Ship Positions

Spiegelgracht

Last reported at 2019-Apr-18 12:00 UTC. Time now 2019-Apr-18 20:40 UTC.
Position N 45°00' W 060°36'.

Length 168 m; beam 25 m.

Type: Cargo ship. MMSI: 245789000.

Wind from 300 at 18 knots

Barometer 1027.2 mb
Air temperature 2.0 ° C
Visibility: greater than 10.8 NM
Dewpoint 0.1 ° C
Water temperature 2.9 ° C

Date/timePositionNaut miles runAvg speedWind from/ knotsBaromVisibWave heightAir tempDewpointWater temp
2019-Apr-18 12:00N 45°00' W 060°36'17814.8 300 / 181027.210.8 2.0 0.1 2.9
2019-Apr-18 00:00N 42°54' W 063°30'17314.4 330 / 161021.210.8 4.0-0.9
2019-Apr-17 12:00N 40°54' W 066°18'17914.9 330 / 211016.710.8 7.2 2.9 3.8
2019-Apr-17 00:00N 39°12' W 069°30'17214.3 290 / 161016.110.8 14.8 5.814.1
2019-Apr-16 12:00N 37°48' W 072°42'32513.5 310 / 301019.610.8 12.2 4.120.6
2019-Apr-15 12:00N 33°12' W 076°12'21718.1 250 / 301007.3 5.4 22.819.425.7
2019-Apr-15 00:00N 30°48' W 079°24'   180 / 271010.8 5.4 26.023.226.0
2019-Apr-11 16:58N 31°36' W 079°51'815.7
2019-Apr-11 16:27N 31°42' W 079°46'1116.0
2019-Apr-11 15:44N 31°51' W 079°38'416.0
2019-Apr-11 15:28N 31°55' W 079°35'715.8
2019-Apr-11 15:00N 32°01' W 079°29'915.6
2019-Apr-11 14:28N 32°07' W 079°23'23015.9
2019-Apr-11 00:00N 34°30' W 075°48'20915.3 040 / 161012.010.8 20.013.926.6
2019-Apr-10 10:19N 37°53' W 074°46'516.7
2019-Apr-10 10:01N 37°58' W 074°46'816.8
2019-Apr-10 09:30N 38°06' W 074°45'816.8
2019-Apr-10 09:01N 38°15' W 074°44'816.7
2019-Apr-10 08:30N 38°23' W 074°44'815.7
2019-Apr-10 08:00N 38°30' W 074°47'612.3
2019-Apr-10 07:30N 38°35' W 074°52'5 9.1
2019-Apr-10 07:00N 38°39' W 074°55'5 9.3
2019-Apr-10 06:30N 38°43' W 074°59'5 9.4
2019-Apr-10 05:59N 38°47' W 075°02'4 9.3
2019-Apr-10 05:31N 38°51' W 075°04'510.1
2019-Apr-10 05:01N 38°56' W 075°06'713.3
2019-Apr-10 04:31N 39°02' W 075°09'612.7
2019-Apr-10 04:01N 39°07' W 075°13'612.0
2019-Apr-10 03:30N 39°13' W 075°17'611.8
2019-Apr-10 03:00N 39°17' W 075°22'612.0
2019-Apr-10 02:30N 39°22' W 075°27'612.9
2019-Apr-10 02:00N 39°27' W 075°33'612.9
2019-Apr-10 01:30N 39°33' W 075°33'611.8
2019-Apr-10 01:01N 39°39' W 075°33'714.1
2019-Apr-10 00:30N 39°45' W 075°29'611.3
2019-Apr-10 00:00N 39°49' W 075°24'611.3
2019-Apr-09 23:30N 39°51' W 075°17'5 9.4
2019-Apr-09 23:00N 39°53' W 075°11'3 6.6
2019-Apr-09 22:30N 39°55' W 075°08'0 0.6
2019-Apr-09 22:00N 39°55' W 075°08'0 0.0
2019-Apr-09 21:30N 39°55' W 075°08'0 0.0
2019-Apr-09 21:00N 39°55' W 075°08'0 0.0
2019-Apr-09 20:30N 39°55' W 075°08'0 0.0
2019-Apr-09 20:00N 39°55' W 075°08'0 0.0
2019-Apr-09 19:30N 39°55' W 075°08'0 0.0
2019-Apr-09 19:00N 39°55' W 075°08'0 0.0
2019-Apr-09 18:30N 39°55' W 075°08'0 0.0
2019-Apr-09 18:00N 39°55' W 075°08'0 0.0
2019-Apr-09 17:30N 39°55' W 075°08'0 0.0
2019-Apr-09 17:00N 39°55' W 075°08'0 0.0
2019-Apr-09 16:30N 39°55' W 075°08'0 0.0
2019-Apr-09 16:00N 39°55' W 075°08'0 0.0
2019-Apr-09 15:30N 39°55' W 075°08'0 0.0
2019-Apr-09 15:00N 39°55' W 075°08'0 0.0
2019-Apr-09 14:30N 39°55' W 075°08'0 0.0
2019-Apr-09 14:00N 39°55' W 075°08'0 0.0
2019-Apr-09 13:30N 39°55' W 075°08'0 0.0
2019-Apr-09 13:00N 39°55' W 075°08'0 0.0
2019-Apr-09 12:30N 39°55' W 075°08'0 0.0
2019-Apr-09 12:00N 39°55' W 075°08'0 0.0
2019-Apr-09 11:30N 39°55' W 075°08'0 0.0
2019-Apr-09 11:00N 39°55' W 075°08'0 0.0
2019-Apr-09 10:27N 39°55' W 075°08'0 0.0
2019-Apr-09 10:00N 39°55' W 075°08'0 0.0
2019-Apr-09 09:30N 39°55' W 075°08'0 0.0
2019-Apr-09 08:59N 39°55' W 075°08'0 0.0
2019-Apr-09 08:29N 39°55' W 075°08'0 0.0
2019-Apr-09 07:59N 39°55' W 075°08'0 0.0
2019-Apr-09 07:29N 39°55' W 075°08'0 0.0
2019-Apr-09 06:59N 39°55' W 075°08'0 0.0
2019-Apr-09 06:29N 39°55' W 075°08'0 0.0
2019-Apr-09 05:59N 39°55' W 075°08'0 0.0
2019-Apr-09 05:29N 39°55' W 075°08'0 0.0
2019-Apr-09 04:59N 39°55' W 075°08'0 0.0
2019-Apr-09 04:29N 39°55' W 075°08'0 0.0
2019-Apr-09 03:56N 39°55' W 075°08'0 0.0
2019-Apr-09 03:29N 39°55' W 075°08'0 0.0
2019-Apr-09 02:59N 39°55' W 075°08'0 0.0
2019-Apr-09 02:29N 39°55' W 075°08'0 0.0
2019-Apr-09 01:59N 39°55' W 075°08'0 0.0
2019-Apr-09 01:29N 39°55' W 075°08'0 0.0
2019-Apr-09 00:59N 39°55' W 075°08'0 0.0
2019-Apr-09 00:29N 39°55' W 075°08'0 0.0
2019-Apr-08 23:59N 39°55' W 075°08'0 0.0
2019-Apr-08 23:29N 39°55' W 075°08'0 0.0
2019-Apr-08 22:59N 39°55' W 075°08'0 0.0
2019-Apr-08 22:29N 39°55' W 075°08'0 0.0
2019-Apr-08 21:59N 39°55' W 075°08'0 0.0
2019-Apr-08 21:29N 39°55' W 075°08'0 0.0
2019-Apr-08 20:59N 39°55' W 075°08'0 0.0
2019-Apr-08 20:29N 39°55' W 075°08'0 0.0
2019-Apr-08 19:59N 39°55' W 075°08'0 0.0
2019-Apr-08 19:29N 39°55' W 075°08'0 0.0
2019-Apr-08 18:59N 39°55' W 075°08'0 0.0
2019-Apr-08 18:29N 39°55' W 075°08'0 0.0
2019-Apr-08 17:59N 39°55' W 075°08'0 0.0
2019-Apr-08 17:29N 39°55' W 075°08'0 0.0
2019-Apr-08 16:59N 39°55' W 075°08'0 0.0
2019-Apr-08 16:29N 39°55' W 075°08'0 0.0
2019-Apr-08 15:59N 39°55' W 075°08'0 0.0
2019-Apr-08 15:29N 39°55' W 075°08'0 0.0
2019-Apr-08 14:59N 39°55' W 075°08'0 0.0
2019-Apr-08 14:29N 39°55' W 075°08'0 0.0
2019-Apr-08 13:59N 39°55' W 075°08'0 0.0
2019-Apr-08 13:29N 39°55' W 075°08'0 0.0
2019-Apr-08 12:59N 39°55' W 075°08'0 0.0
2019-Apr-08 12:29N 39°55' W 075°08'  

Dump ship's entire track history